Terminal Aerodrome Forecast
Issued by NWS

Current Version | Previous Version | Text Only | Print | Product List | Glossary On
Versions: 1 2 3 4 5 6 7 8 9 10 11 12 13 14 15 16 17
000
FTUS42 KTAE 231125
TAFABY
TAF
KABY 231125Z 2312/2412 05004KT 6SM BR BKN015
     FM231500 06008KT P6SM SCT015
     FM231600 06009KT P6SM SCT030
     FM231800 07010KT P6SM SCT100
     FM240600 VRB03KT 5SM BR SCT004=

USA.gov is the U.S. government's official web portal to all federal, state and local government web resources and services.